sensor_id;sensor_type;location;lat;lon;timestamp;temperature;humidity
28747;DHT22;15903;49.008;8.394;2023-03-01T00:01:21;2.40;94.00
28747;DHT22;15903;49.008;8.394;2023-03-01T00:03:47;2.40;94.00
28747;DHT22;15903;49.008;8.394;2023-03-01T00:06:13;2.40;94.10
28747;DHT22;15903;49.008;8.394;2023-03-01T00:08:39;2.30;94.10
28747;DHT22;15903;49.008;8.394;2023-03-01T00:11:14;2.30;94.30
28747;DHT22;15903;49.008;8.394;2023-03-01T00:13:40;2.30;94.60
28747;DHT22;15903;49.008;8.394;2023-03-01T00:16:12;2.30;94.50
28747;DHT22;15903;49.008;8.394;2023-03-01T00:18:38;2.30;94.70
28747;DHT22;15903;49.008;8.394;2023-03-01T00:21:05;2.20;94.80
28747;DHT22;15903;49.008;8.394;2023-03-01T00:23:31;2.20;95.00
28747;DHT22;15903;49.008;8.394;2023-03-01T00:25:57;2.20;94.90
28747;DHT22;15903;49.008;8.394;2023-03-01T00:28:23;2.20;95.00
28747;DHT22;15903;49.008;8.394;2023-03-01T00:30:48;2.20;95.10
28747;DHT22;15903;49.008;8.394;2023-03-01T00:33:14;2.20;95.20
28747;DHT22;15903;49.008;8.394;2023-03-01T00:35:39;2.20;95.20
28747;DHT22;15903;49.008;8.394;2023-03-01T00:38:05;2.20;95.50
28747;DHT22;15903;49.008;8.394;2023-03-01T00:40:33;2.10;95.50
28747;DHT22;15903;49.008;8.394;2023-03-01T00:42:59;2.10;95.90
28747;DHT22;15903;49.008;8.394;2023-03-01T00:45:25;2.10;95.90
28747;DHT22;15903;49.008;8.394;2023-03-01T00:47:51;2.10;95.90
28747;DHT22;15903;49.008;8.394;2023-03-01T00:50:18;2.10;95.70
28747;DHT22;15903;49.008;8.394;2023-03-01T00:52:43;2.10;95.70
28747;DHT22;15903;49.008;8.394;2023-03-01T00:55:10;2.10;95.70
28747;DHT22;15903;49.008;8.394;2023-03-01T00:57:36;2.10;95.80
28747;DHT22;15903;49.008;8.394;2023-03-01T01:00:02;2.00;96.00
28747;DHT22;15903;49.008;8.394;2023-03-01T01:02:29;2.00;96.00
28747;DHT22;15903;49.008;8.394;2023-03-01T01:04:55;2.00;96.30
28747;DHT22;15903;49.008;8.394;2023-03-01T01:07:20;2.00;96.40
28747;DHT22;15903;49.008;8.394;2023-03-01T01:09:46;1.90;96.50
28747;DHT22;15903;49.008;8.394;2023-03-01T01:12:12;1.90;96.40
28747;DHT22;15903;49.008;8.394;2023-03-01T01:14:38;1.90;96.60
28747;DHT22;15903;49.008;8.394;2023-03-01T01:17:04;1.90;96.40
28747;DHT22;15903;49.008;8.394;2023-03-01T01:19:30;1.90;96.50
28747;DHT22;15903;49.008;8.394;2023-03-01T01:21:55;1.90;96.50
28747;DHT22;15903;49.008;8.394;2023-03-01T01:24:21;1.90;96.80
28747;DHT22;15903;49.008;8.394;2023-03-01T01:26:47;1.90;96.80
28747;DHT22;15903;49.008;8.394;2023-03-01T01:29:13;1.90;96.90
28747;DHT22;15903;49.008;8.394;2023-03-01T01:31:41;1.90;96.80
28747;DHT22;15903;49.008;8.394;2023-03-01T01:34:12;1.90;96.70
28747;DHT22;15903;49.008;8.394;2023-03-01T01:36:38;1.90;97.00
28747;DHT22;15903;49.008;8.394;2023-03-01T01:39:04;1.80;97.00
28747;DHT22;15903;49.008;8.394;2023-03-01T01:41:30;1.80;97.00
28747;DHT22;15903;49.008;8.394;2023-03-01T01:46:41;1.80;97.10
28747;DHT22;15903;49.008;8.394;2023-03-01T01:49:39;1.80;97.30
28747;DHT22;15903;49.008;8.394;2023-03-01T01:52:19;1.70;97.60
28747;DHT22;15903;49.008;8.394;2023-03-01T01:54:56;1.70;97.60
28747;DHT22;15903;49.008;8.394;2023-03-01T01:57:32;1.70;97.60
28747;DHT22;15903;49.008;8.394;2023-03-01T02:00:02;1.70;97.70
28747;DHT22;15903;49.008;8.394;2023-03-01T02:02:29;1.70;97.80
28747;DHT22;15903;49.008;8.394;2023-03-01T02:05:06;1.70;97.70
28747;DHT22;15903;49.008;8.394;2023-03-01T02:07:38;1.70;97.80
28747;DHT22;15903;49.008;8.394;2023-03-01T02:10:05;1.70;97.90
28747;DHT22;15903;49.008;8.394;2023-03-01T02:12:31;1.60;97.90
28747;DHT22;15903;49.008;8.394;2023-03-01T02:14:57;1.70;97.90
28747;DHT22;15903;49.008;8.394;2023-03-01T02:17:23;1.60;98.00
28747;DHT22;15903;49.008;8.394;2023-03-01T02:22:31;1.60;98.40
28747;DHT22;15903;49.008;8.394;2023-03-01T02:27:58;1.60;98.80
28747;DHT22;15903;49.008;8.394;2023-03-01T02:30:26;1.60;98.70
28747;DHT22;15903;49.008;8.394;2023-03-01T02:32:54;1.50;98.80
28747;DHT22;15903;49.008;8.394;2023-03-01T02:35:29;1.50;99.00
28747;DHT22;15903;49.008;8.394;2023-03-01T02:37:56;1.50;99.10
28747;DHT22;15903;49.008;8.394;2023-03-01T02:40:23;1.50;99.30
28747;DHT22;15903;49.008;8.394;2023-03-01T02:42:57;1.40;99.50
28747;DHT22;15903;49.008;8.394;2023-03-01T02:45:24;1.30;99.70
28747;DHT22;15903;49.008;8.394;2023-03-01T02:47:49;1.20;99.90
28747;DHT22;15903;49.008;8.394;2023-03-01T02:53:11;1.10;99.90
28747;DHT22;15903;49.008;8.394;2023-03-01T02:55:38;1.20;99.90
28747;DHT22;15903;49.008;8.394;2023-03-01T02:58:04;1.20;99.90
28747;DHT22;15903;49.008;8.394;2023-03-01T03:00:38;1.20;99.90
28747;DHT22;15903;49.008;8.394;2023-03-01T03:03:05;1.10;99.90
28747;DHT22;15903;49.008;8.394;2023-03-01T03:05:33;1.10;99.90
28747;DHT22;15903;49.008;8.394;2023-03-01T03:08:01;1.10;99.90
28747;DHT22;15903;49.008;8.394;2023-03-01T03:10:31;1.20;99.90
28747;DHT22;15903;49.008;8.394;2023-03-01T03:12:59;1.20;99.90
28747;DHT22;15903;49.008;8.394;2023-03-01T03:15:26;1.20;99.90
28747;DHT22;15903;49.008;8.394;2023-03-01T03:17:53;1.20;99.90
28747;DHT22;15903;49.008;8.394;2023-03-01T03:20:21;1.20;99.90
28747;DHT22;15903;49.008;8.394;2023-03-01T03:22:49;1.20;99.90
28747;DHT22;15903;49.008;8.394;2023-03-01T03:25:16;1.20;99.90
28747;DHT22;15903;49.008;8.394;2023-03-01T03:27:43;1.20;99.90
28747;DHT22;15903;49.008;8.394;2023-03-01T03:30:12;1.20;99.90
28747;DHT22;15903;49.008;8.394;2023-03-01T03:32:40;1.20;99.90
28747;DHT22;15903;49.008;8.394;2023-03-01T03:35:08;1.20;99.90
28747;DHT22;15903;49.008;8.394;2023-03-01T03:37:43;1.10;99.90
28747;DHT22;15903;49.008;8.394;2023-03-01T03:40:41;1.10;99.90
28747;DHT22;15903;49.008;8.394;2023-03-01T03:43:10;1.10;99.90
28747;DHT22;15903;49.008;8.394;2023-03-01T03:45:36;1.10;99.90
28747;DHT22;15903;49.008;8.394;2023-03-01T03:48:04;1.10;99.90
28747;DHT22;15903;49.008;8.394;2023-03-01T03:50:30;1.10;99.90
28747;DHT22;15903;49.008;8.394;2023-03-01T03:52:56;1.00;99.90
28747;DHT22;15903;49.008;8.394;2023-03-01T03:55:22;1.00;99.90
28747;DHT22;15903;49.008;8.394;2023-03-01T03:57:48;0.90;99.90
28747;DHT22;15903;49.008;8.394;2023-03-01T04:00:18;0.90;99.90
28747;DHT22;15903;49.008;8.394;2023-03-01T04:02:45;1.00;99.90
28747;DHT22;15903;49.008;8.394;2023-03-01T04:05:12;1.00;99.90
28747;DHT22;15903;49.008;8.394;2023-03-01T04:07:40;1.00;99.90
28747;DHT22;15903;49.008;8.394;2023-03-01T04:10:17;0.90;99.90
28747;DHT22;15903;49.008;8.394;2023-03-01T04:12:43;0.90;99.90
28747;DHT22;15903;49.008;8.394;2023-03-01T04:15:12;0.90;99.90
28747;DHT22;15903;49.008;8.394;2023-03-01T04:17:46;0.90;99.90
28747;DHT22;15903;49.008;8.394;2023-03-01T04:20:15;0.90;99.90
28747;DHT22;15903;49.008;8.394;2023-03-01T04:25:53;0.90;99.90
28747;DHT22;15903;49.008;8.394;2023-03-01T04:28:27;0.80;99.90
28747;DHT22;15903;49.008;8.394;2023-03-01T04:30:55;0.80;99.90
28747;DHT22;15903;49.008;8.394;2023-03-01T04:33:21;0.80;99.90
28747;DHT22;15903;49.008;8.394;2023-03-01T04:35:48;0.70;99.90
28747;DHT22;15903;49.008;8.394;2023-03-01T04:38:18;0.70;99.90
28747;DHT22;15903;49.008;8.394;2023-03-01T04:40:43;0.70;99.90
28747;DHT22;15903;49.008;8.394;2023-03-01T04:43:10;0.70;99.90
28747;DHT22;15903;49.008;8.394;2023-03-01T04:45:36;0.60;99.90
28747;DHT22;15903;49.008;8.394;2023-03-01T04:48:03;0.60;99.90
28747;DHT22;15903;49.008;8.394;2023-03-01T04:50:29;0.60;99.90
28747;DHT22;15903;49.008;8.394;2023-03-01T04:52:55;0.60;99.90
28747;DHT22;15903;49.008;8.394;2023-03-01T04:55:25;0.50;99.90
28747;DHT22;15903;49.008;8.394;2023-03-01T04:57:51;0.50;99.90
28747;DHT22;15903;49.008;8.394;2023-03-01T05:00:16;0.50;99.90
28747;DHT22;15903;49.008;8.394;2023-03-01T05:02:55;0.50;99.90
28747;DHT22;15903;49.008;8.394;2023-03-01T05:05:27;0.60;99.90
28747;DHT22;15903;49.008;8.394;2023-03-01T05:07:59;0.60;99.90
28747;DHT22;15903;49.008;8.394;2023-03-01T05:10:26;0.70;99.90
28747;DHT22;15903;49.008;8.394;2023-03-01T05:12:55;0.60;99.90
28747;DHT22;15903;49.008;8.394;2023-03-01T05:15:23;0.60;99.90
28747;DHT22;15903;49.008;8.394;2023-03-01T05:17:51;0.60;99.90
28747;DHT22;15903;49.008;8.394;2023-03-01T05:20:17;0.60;99.90
28747;DHT22;15903;49.008;8.394;2023-03-01T05:22:43;0.60;99.90
28747;DHT22;15903;49.008;8.394;2023-03-01T05:25:09;0.60;99.90
28747;DHT22;15903;49.008;8.394;2023-03-01T05:27:35;0.50;99.90
28747;DHT22;15903;49.008;8.394;2023-03-01T05:30:02;0.50;99.90
28747;DHT22;15903;49.008;8.394;2023-03-01T05:32:41;0.50;99.90
28747;DHT22;15903;49.008;8.394;2023-03-01T05:35:09;0.50;99.90
28747;DHT22;15903;49.008;8.394;2023-03-01T05:37:34;0.50;99.90
28747;DHT22;15903;49.008;8.394;2023-03-01T05:40:01;0.40;99.90
28747;DHT22;15903;49.008;8.394;2023-03-01T05:42:26;0.40;99.90
28747;DHT22;15903;49.008;8.394;2023-03-01T05:44:52;0.40;99.90
28747;DHT22;15903;49.008;8.394;2023-03-01T05:47:18;0.40;99.90
28747;DHT22;15903;49.008;8.394;2023-03-01T05:49:43;0.40;99.90
28747;DHT22;15903;49.008;8.394;2023-03-01T05:52:09;0.40;99.90
28747;DHT22;15903;49.008;8.394;2023-03-01T05:54:34;0.40;99.90
28747;DHT22;15903;49.008;8.394;2023-03-01T05:57:00;0.30;99.90
28747;DHT22;15903;49.008;8.394;2023-03-01T05:59:25;0.30;99.90
28747;DHT22;15903;49.008;8.394;2023-03-01T06:01:51;0.30;99.90
28747;DHT22;15903;49.008;8.394;2023-03-01T06:04:17;0.40;99.90
28747;DHT22;15903;49.008;8.394;2023-03-01T06:06:42;0.40;99.90
28747;DHT22;15903;49.008;8.394;2023-03-01T06:09:08;0.40;99.90
28747;DHT22;15903;49.008;8.394;2023-03-01T06:11:35;0.30;99.90
28747;DHT22;15903;49.008;8.394;2023-03-01T06:14:01;0.30;99.90
28747;DHT22;15903;49.008;8.394;2023-03-01T06:16:27;0.30;99.90
28747;DHT22;15903;49.008;8.394;2023-03-01T06:18:52;0.30;99.90
28747;DHT22;15903;49.008;8.394;2023-03-01T06:21:18;0.30;99.90
28747;DHT22;15903;49.008;8.394;2023-03-01T06:23:43;0.40;99.90
28747;DHT22;15903;49.008;8.394;2023-03-01T06:26:09;0.40;99.90
28747;DHT22;15903;49.008;8.394;2023-03-01T06:28:35;0.40;99.90
28747;DHT22;15903;49.008;8.394;2023-03-01T06:31:01;0.40;99.90
28747;DHT22;15903;49.008;8.394;2023-03-01T06:33:26;0.40;99.90
28747;DHT22;15903;49.008;8.394;2023-03-01T06:35:54;0.50;99.90
28747;DHT22;15903;49.008;8.394;2023-03-01T06:38:21;0.50;99.90
28747;DHT22;15903;49.008;8.394;2023-03-01T06:40:52;0.50;99.90
28747;DHT22;15903;49.008;8.394;2023-03-01T06:43:19;0.50;99.90
28747;DHT22;15903;49.008;8.394;2023-03-01T06:45:45;0.50;99.90
28747;DHT22;15903;49.008;8.394;2023-03-01T06:48:11;0.60;99.90
28747;DHT22;15903;49.008;8.394;2023-03-01T06:50:37;0.60;99.90
28747;DHT22;15903;49.008;8.394;2023-03-01T06:53:03;0.70;99.90
28747;DHT22;15903;49.008;8.394;2023-03-01T06:55:29;0.70;99.90
28747;DHT22;15903;49.008;8.394;2023-03-01T06:58:01;0.70;99.90
28747;DHT22;15903;49.008;8.394;2023-03-01T07:00:28;0.70;99.90
28747;DHT22;15903;49.008;8.394;2023-03-01T07:02:53;0.70;99.90
28747;DHT22;15903;49.008;8.394;2023-03-01T07:05:19;0.70;99.90
28747;DHT22;15903;49.008;8.394;2023-03-01T07:07:45;0.70;99.90
28747;DHT22;15903;49.008;8.394;2023-03-01T07:10:11;0.70;99.90
28747;DHT22;15903;49.008;8.394;2023-03-01T07:12:38;0.80;99.90
28747;DHT22;15903;49.008;8.394;2023-03-01T07:15:05;0.80;99.90
28747;DHT22;15903;49.008;8.394;2023-03-01T07:17:31;0.80;99.90
28747;DHT22;15903;49.008;8.394;2023-03-01T07:19:57;0.90;99.90
28747;DHT22;15903;49.008;8.394;2023-03-01T07:22:22;1.00;99.90
28747;DHT22;15903;49.008;8.394;2023-03-01T07:24:48;1.10;99.90
28747;DHT22;15903;49.008;8.394;2023-03-01T07:27:13;1.10;99.90
28747;DHT22;15903;49.008;8.394;2023-03-01T07:29:39;1.20;99.90
28747;DHT22;15903;49.008;8.394;2023-03-01T07:32:05;1.20;99.90
28747;DHT22;15903;49.008;8.394;2023-03-01T07:34:31;1.20;99.90
28747;DHT22;15903;49.008;8.394;2023-03-01T07:36:57;1.20;99.90
28747;DHT22;15903;49.008;8.394;2023-03-01T07:39:23;1.30;99.90
28747;DHT22;15903;49.008;8.394;2023-03-01T07:41:49;1.30;99.90
28747;DHT22;15903;49.008;8.394;2023-03-01T07:44:15;1.40;99.90
28747;DHT22;15903;49.008;8.394;2023-03-01T07:46:41;1.40;99.90
28747;DHT22;15903;49.008;8.394;2023-03-01T07:49:07;1.50;99.90
28747;DHT22;15903;49.008;8.394;2023-03-01T07:51:33;1.50;99.90
28747;DHT22;15903;49.008;8.394;2023-03-01T07:53:58;1.50;99.90
28747;DHT22;15903;49.008;8.394;2023-03-01T07:56:24;1.60;99.90
28747;DHT22;15903;49.008;8.394;2023-03-01T07:58:49;1.60;99.90
28747;DHT22;15903;49.008;8.394;2023-03-01T08:01:18;1.70;99.90
28747;DHT22;15903;49.008;8.394;2023-03-01T08:03:44;1.70;99.90
28747;DHT22;15903;49.008;8.394;2023-03-01T08:06:12;1.80;99.90
28747;DHT22;15903;49.008;8.394;2023-03-01T08:08:38;1.80;99.90
28747;DHT22;15903;49.008;8.394;2023-03-01T08:11:06;1.90;99.90
28747;DHT22;15903;49.008;8.394;2023-03-01T08:13:32;1.90;99.90
28747;DHT22;15903;49.008;8.394;2023-03-01T08:16:06;2.00;99.90
28747;DHT22;15903;49.008;8.394;2023-03-01T08:18:32;2.00;99.90
28747;DHT22;15903;49.008;8.394;2023-03-01T08:21:05;2.10;99.90
28747;DHT22;15903;49.008;8.394;2023-03-01T08:23:30;2.10;99.90
28747;DHT22;15903;49.008;8.394;2023-03-01T08:26:07;2.20;99.90
28747;DHT22;15903;49.008;8.394;2023-03-01T08:28:33;2.20;99.90
28747;DHT22;15903;49.008;8.394;2023-03-01T08:30:59;2.30;99.90
28747;DHT22;15903;49.008;8.394;2023-03-01T08:33:25;2.30;99.90
28747;DHT22;15903;49.008;8.394;2023-03-01T08:35:50;2.30;99.90
28747;DHT22;15903;49.008;8.394;2023-03-01T08:38:16;2.40;99.90
28747;DHT22;15903;49.008;8.394;2023-03-01T08:40:41;2.40;99.90
28747;DHT22;15903;49.008;8.394;2023-03-01T08:43:07;2.50;99.90
28747;DHT22;15903;49.008;8.394;2023-03-01T08:45:32;2.60;99.90
28747;DHT22;15903;49.008;8.394;2023-03-01T08:47:58;2.70;99.90
28747;DHT22;15903;49.008;8.394;2023-03-01T08:50:24;2.70;99.90
28747;DHT22;15903;49.008;8.394;2023-03-01T08:52:50;2.70;99.90
28747;DHT22;15903;49.008;8.394;2023-03-01T08:55:16;2.80;99.90
28747;DHT22;15903;49.008;8.394;2023-03-01T08:57:43;2.80;99.90
28747;DHT22;15903;49.008;8.394;2023-03-01T09:00:10;2.90;99.90
28747;DHT22;15903;49.008;8.394;2023-03-01T09:02:36;3.00;99.90
28747;DHT22;15903;49.008;8.394;2023-03-01T09:05:02;3.00;99.90
28747;DHT22;15903;49.008;8.394;2023-03-01T09:07:28;3.10;99.90
28747;DHT22;15903;49.008;8.394;2023-03-01T09:09:54;3.10;99.90
28747;DHT22;15903;49.008;8.394;2023-03-01T09:12:20;3.10;99.90
28747;DHT22;15903;49.008;8.394;2023-03-01T09:14:46;3.20;99.90
28747;DHT22;15903;49.008;8.394;2023-03-01T09:17:11;3.40;99.90
28747;DHT22;15903;49.008;8.394;2023-03-01T09:19:37;3.30;99.90
28747;DHT22;15903;49.008;8.394;2023-03-01T09:22:03;3.40;99.90
28747;DHT22;15903;49.008;8.394;2023-03-01T09:24:29;3.40;99.90
28747;DHT22;15903;49.008;8.394;2023-03-01T09:26:56;3.50;99.90
28747;DHT22;15903;49.008;8.394;2023-03-01T09:29:22;3.50;99.80
28747;DHT22;15903;49.008;8.394;2023-03-01T09:31:48;3.60;99.90
28747;DHT22;15903;49.008;8.394;2023-03-01T09:34:14;3.70;99.90
28747;DHT22;15903;49.008;8.394;2023-03-01T09:36:41;3.80;99.40
28747;DHT22;15903;49.008;8.394;2023-03-01T09:39:07;3.90;99.20
28747;DHT22;15903;49.008;8.394;2023-03-01T09:46:46;4.10;99.10
28747;DHT22;15903;49.008;8.394;2023-03-01T09:49:21;4.10;99.20
28747;DHT22;15903;49.008;8.394;2023-03-01T09:52:09;4.20;99.00
28747;DHT22;15903;49.008;8.394;2023-03-01T09:54:37;4.20;98.60
28747;DHT22;15903;49.008;8.394;2023-03-01T09:57:18;4.30;98.90
28747;DHT22;15903;49.008;8.394;2023-03-01T10:00:09;4.40;98.20
28747;DHT22;15903;49.008;8.394;2023-03-01T10:03:15;4.40;97.90
28747;DHT22;15903;49.008;8.394;2023-03-01T10:05:59;4.40;97.80
28747;DHT22;15903;49.008;8.394;2023-03-01T10:10:57;4.60;98.30
28747;DHT22;15903;49.008;8.394;2023-03-01T10:13:33;4.70;98.10
28747;DHT22;15903;49.008;8.394;2023-03-01T10:16:25;4.70;97.50
28747;DHT22;15903;49.008;8.394;2023-03-01T10:18:57;4.80;97.70
28747;DHT22;15903;49.008;8.394;2023-03-01T10:21:27;4.90;96.90
28747;DHT22;15903;49.008;8.394;2023-03-01T10:23:53;4.90;96.70
28747;DHT22;15903;49.008;8.394;2023-03-01T10:29:20;4.90;96.50
28747;DHT22;15903;49.008;8.394;2023-03-01T10:31:51;5.00;96.70
28747;DHT22;15903;49.008;8.394;2023-03-01T10:34:18;5.10;96.50
28747;DHT22;15903;49.008;8.394;2023-03-01T10:36:48;5.10;96.00
28747;DHT22;15903;49.008;8.394;2023-03-01T10:39:17;5.20;96.10
28747;DHT22;15903;49.008;8.394;2023-03-01T10:42:01;5.20;96.30
28747;DHT22;15903;49.008;8.394;2023-03-01T10:44:46;5.30;95.80
28747;DHT22;15903;49.008;8.394;2023-03-01T10:47:18;5.30;95.80
28747;DHT22;15903;49.008;8.394;2023-03-01T10:52:29;5.40;95.10
28747;DHT22;15903;49.008;8.394;2023-03-01T10:55:23;5.50;95.60
28747;DHT22;15903;49.008;8.394;2023-03-01T10:57:49;5.60;95.10
28747;DHT22;15903;49.008;8.394;2023-03-01T11:02:50;5.70;95.10
28747;DHT22;15903;49.008;8.394;2023-03-01T11:05:23;5.70;94.90
28747;DHT22;15903;49.008;8.394;2023-03-01T11:07:57;5.80;95.20
28747;DHT22;15903;49.008;8.394;2023-03-01T11:13:05;5.80;94.10
28747;DHT22;15903;49.008;8.394;2023-03-01T11:15:31;5.90;94.70
28747;DHT22;15903;49.008;8.394;2023-03-01T11:17:57;5.90;94.60
28747;DHT22;15903;49.008;8.394;2023-03-01T11:20:28;6.00;93.70
28747;DHT22;15903;49.008;8.394;2023-03-01T11:22:58;6.10;94.20
28747;DHT22;15903;49.008;8.394;2023-03-01T11:25:35;6.20;94.30
28747;DHT22;15903;49.008;8.394;2023-03-01T11:28:04;6.20;94.10
28747;DHT22;15903;49.008;8.394;2023-03-01T11:30:49;6.30;94.20
28747;DHT22;15903;49.008;8.394;2023-03-01T11:33:38;6.30;92.50
28747;DHT22;15903;49.008;8.394;2023-03-01T11:38:43;6.40;93.40
28747;DHT22;15903;49.008;8.394;2023-03-01T11:41:24;6.50;94.00
28747;DHT22;15903;49.008;8.394;2023-03-01T11:44:03;6.60;92.90
28747;DHT22;15903;49.008;8.394;2023-03-01T11:50:02;6.70;93.10
28747;DHT22;15903;49.008;8.394;2023-03-01T11:58:06;6.80;92.40
28747;DHT22;15903;49.008;8.394;2023-03-01T12:00:47;6.90;92.20
28747;DHT22;15903;49.008;8.394;2023-03-01T12:03:42;7.00;92.20
28747;DHT22;15903;49.008;8.394;2023-03-01T12:06:28;7.00;91.30
28747;DHT22;15903;49.008;8.394;2023-03-01T12:14:55;7.20;91.00
28747;DHT22;15903;49.008;8.394;2023-03-01T12:22:35;7.40;90.90
28747;DHT22;15903;49.008;8.394;2023-03-01T12:48:30;7.80;87.50
28747;DHT22;15903;49.008;8.394;2023-03-01T12:51:02;7.80;87.20
28747;DHT22;15903;49.008;8.394;2023-03-01T12:53:51;7.80;87.30
28747;DHT22;15903;49.008;8.394;2023-03-01T12:56:21;7.90;86.80
28747;DHT22;15903;49.008;8.394;2023-03-01T12:59:12;7.90;87.10
28747;DHT22;15903;49.008;8.394;2023-03-01T13:01:52;8.00;88.00
28747;DHT22;15903;49.008;8.394;2023-03-01T13:07:34;8.20;86.00
28747;DHT22;15903;49.008;8.394;2023-03-01T13:10:26;8.20;86.40
28747;DHT22;15903;49.008;8.394;2023-03-01T13:17:59;8.40;85.00
28747;DHT22;15903;49.008;8.394;2023-03-01T13:20:34;8.50;84.00
28747;DHT22;15903;49.008;8.394;2023-03-01T13:31:00;8.70;81.40
28747;DHT22;15903;49.008;8.394;2023-03-01T13:35:53;8.80;82.70
28747;DHT22;15903;49.008;8.394;2023-03-01T13:38:39;8.80;82.30
28747;DHT22;15903;49.008;8.394;2023-03-01T13:41:09;8.80;82.50
28747;DHT22;15903;49.008;8.394;2023-03-01T13:43:36;8.90;81.10
28747;DHT22;15903;49.008;8.394;2023-03-01T13:46:18;9.00;81.20
28747;DHT22;15903;49.008;8.394;2023-03-01T13:48:51;9.00;81.20
28747;DHT22;15903;49.008;8.394;2023-03-01T13:51:26;9.00;81.60
28747;DHT22;15903;49.008;8.394;2023-03-01T13:53:54;9.10;80.50
28747;DHT22;15903;49.008;8.394;2023-03-01T13:56:29;9.20;81.40
28747;DHT22;15903;49.008;8.394;2023-03-01T13:59:02;9.30;79.60
28747;DHT22;15903;49.008;8.394;2023-03-01T14:03:58;9.30;80.30
28747;DHT22;15903;49.008;8.394;2023-03-01T14:06:29;9.40;79.60
28747;DHT22;15903;49.008;8.394;2023-03-01T14:09:26;9.50;79.70
28747;DHT22;15903;49.008;8.394;2023-03-01T14:15:02;9.50;78.40
28747;DHT22;15903;49.008;8.394;2023-03-01T14:20:27;9.60;78.40
28747;DHT22;15903;49.008;8.394;2023-03-01T14:22:57;9.70;78.00
28747;DHT22;15903;49.008;8.394;2023-03-01T14:25:29;9.70;78.00
28747;DHT22;15903;49.008;8.394;2023-03-01T14:30:41;9.80;77.50
28747;DHT22;15903;49.008;8.394;2023-03-01T14:36:08;9.90;77.70
28747;DHT22;15903;49.008;8.394;2023-03-01T14:38:45;9.90;76.10
28747;DHT22;15903;49.008;8.394;2023-03-01T14:41:14;9.90;76.00
28747;DHT22;15903;49.008;8.394;2023-03-01T14:49:05;9.90;76.00
28747;DHT22;15903;49.008;8.394;2023-03-01T14:51:40;9.90;75.60
28747;DHT22;15903;49.008;8.394;2023-03-01T14:54:41;9.90;75.90
28747;DHT22;15903;49.008;8.394;2023-03-01T14:57:05;9.90;75.10
28747;DHT22;15903;49.008;8.394;2023-03-01T14:59:33;9.90;75.20
28747;DHT22;15903;49.008;8.394;2023-03-01T15:02:00;9.90;76.10
28747;DHT22;15903;49.008;8.394;2023-03-01T15:04:27;9.90;76.00
28747;DHT22;15903;49.008;8.394;2023-03-01T15:06:55;10.00;75.90
28747;DHT22;15903;49.008;8.394;2023-03-01T15:09:21;9.90;74.80
28747;DHT22;15903;49.008;8.394;2023-03-01T15:11:47;9.90;75.50
28747;DHT22;15903;49.008;8.394;2023-03-01T15:14:45;9.90;74.70
28747;DHT22;15903;49.008;8.394;2023-03-01T15:19:56;10.00;75.10
28747;DHT22;15903;49.008;8.394;2023-03-01T15:22:22;9.90;74.10
28747;DHT22;15903;49.008;8.394;2023-03-01T15:24:49;9.90;74.40
28747;DHT22;15903;49.008;8.394;2023-03-01T15:27:21;9.80;75.00
28747;DHT22;15903;49.008;8.394;2023-03-01T15:29:55;9.90;74.70
28747;DHT22;15903;49.008;8.394;2023-03-01T15:34:48;9.80;74.00
28747;DHT22;15903;49.008;8.394;2023-03-01T15:37:46;9.70;74.60
28747;DHT22;15903;49.008;8.394;2023-03-01T15:40:27;9.80;74.30
28747;DHT22;15903;49.008;8.394;2023-03-01T15:43:01;9.70;73.70
28747;DHT22;15903;49.008;8.394;2023-03-01T15:45:29;9.70;74.20
28747;DHT22;15903;49.008;8.394;2023-03-01T15:48:04;9.60;75.10
28747;DHT22;15903;49.008;8.394;2023-03-01T15:50:35;9.60;74.80
28747;DHT22;15903;49.008;8.394;2023-03-01T15:53:12;9.60;75.10
28747;DHT22;15903;49.008;8.394;2023-03-01T15:55:39;9.50;75.20
28747;DHT22;15903;49.008;8.394;2023-03-01T15:58:18;9.50;75.40
28747;DHT22;15903;49.008;8.394;2023-03-01T16:00:46;9.50;75.10
28747;DHT22;15903;49.008;8.394;2023-03-01T16:03:14;9.50;75.00
28747;DHT22;15903;49.008;8.394;2023-03-01T16:05:47;9.40;74.90
28747;DHT22;15903;49.008;8.394;2023-03-01T16:08:14;9.40;74.70
28747;DHT22;15903;49.008;8.394;2023-03-01T16:10:41;9.30;74.90
28747;DHT22;15903;49.008;8.394;2023-03-01T16:13:09;9.30;75.70
28747;DHT22;15903;49.008;8.394;2023-03-01T16:15:35;9.20;75.90
28747;DHT22;15903;49.008;8.394;2023-03-01T16:18:02;9.20;75.40
28747;DHT22;15903;49.008;8.394;2023-03-01T16:20:29;9.20;75.30
28747;DHT22;15903;49.008;8.394;2023-03-01T16:22:58;9.10;75.10
28747;DHT22;15903;49.008;8.394;2023-03-01T16:25:25;9.10;75.30
28747;DHT22;15903;49.008;8.394;2023-03-01T16:27:51;9.00;75.90
28747;DHT22;15903;49.008;8.394;2023-03-01T16:30:20;9.00;76.10
28747;DHT22;15903;49.008;8.394;2023-03-01T16:32:47;8.90;76.70
28747;DHT22;15903;49.008;8.394;2023-03-01T16:35:17;8.80;76.40
28747;DHT22;15903;49.008;8.394;2023-03-01T16:37:43;8.80;77.10
28747;DHT22;15903;49.008;8.394;2023-03-01T16:40:17;8.80;76.70
28747;DHT22;15903;49.008;8.394;2023-03-01T16:42:43;8.80;77.10
28747;DHT22;15903;49.008;8.394;2023-03-01T16:45:09;8.70;76.70
28747;DHT22;15903;49.008;8.394;2023-03-01T16:47:35;8.70;77.20
28747;DHT22;15903;49.008;8.394;2023-03-01T16:50:01;8.60;78.40
28747;DHT22;15903;49.008;8.394;2023-03-01T16:52:27;8.60;77.70
28747;DHT22;15903;49.008;8.394;2023-03-01T16:54:52;8.60;77.90
28747;DHT22;15903;49.008;8.394;2023-03-01T16:57:18;8.60;77.90
28747;DHT22;15903;49.008;8.394;2023-03-01T16:59:44;8.50;77.90
28747;DHT22;15903;49.008;8.394;2023-03-01T17:02:14;8.50;78.90
28747;DHT22;15903;49.008;8.394;2023-03-01T17:04:50;8.50;78.20
28747;DHT22;15903;49.008;8.394;2023-03-01T17:07:16;8.40;78.20
28747;DHT22;15903;49.008;8.394;2023-03-01T17:09:42;8.40;78.20
28747;DHT22;15903;49.008;8.394;2023-03-01T17:12:07;8.40;78.20
28747;DHT22;15903;49.008;8.394;2023-03-01T17:14:34;8.30;78.60
28747;DHT22;15903;49.008;8.394;2023-03-01T17:16:59;8.30;78.70
28747;DHT22;15903;49.008;8.394;2023-03-01T17:19:27;8.20;78.80
28747;DHT22;15903;49.008;8.394;2023-03-01T17:21:54;8.20;79.10
28747;DHT22;15903;49.008;8.394;2023-03-01T17:24:19;8.10;79.20
28747;DHT22;15903;49.008;8.394;2023-03-01T17:26:45;8.10;79.90
28747;DHT22;15903;49.008;8.394;2023-03-01T17:29:11;8.00;79.80
28747;DHT22;15903;49.008;8.394;2023-03-01T17:31:38;8.00;79.90
28747;DHT22;15903;49.008;8.394;2023-03-01T17:34:03;8.00;80.00
28747;DHT22;15903;49.008;8.394;2023-03-01T17:36:29;7.90;80.10
28747;DHT22;15903;49.008;8.394;2023-03-01T17:38:54;7.90;80.20
28747;DHT22;15903;49.008;8.394;2023-03-01T17:41:20;7.90;80.30
28747;DHT22;15903;49.008;8.394;2023-03-01T17:43:48;7.90;80.80
28747;DHT22;15903;49.008;8.394;2023-03-01T17:46:13;7.90;80.70
28747;DHT22;15903;49.008;8.394;2023-03-01T17:48:39;7.90;80.50
28747;DHT22;15903;49.008;8.394;2023-03-01T17:51:06;7.80;80.20
28747;DHT22;15903;49.008;8.394;2023-03-01T17:53:32;7.80;80.40
28747;DHT22;15903;49.008;8.394;2023-03-01T17:56:03;7.80;80.60
28747;DHT22;15903;49.008;8.394;2023-03-01T17:58:29;7.80;81.90
28747;DHT22;15903;49.008;8.394;2023-03-01T18:00:55;7.70;81.40